Randolph C — WDI2573 — position and weather

sailwx.info

Track history (hours):
 
Tides and Currents Weather Stations Pressure Air Temp Water Temp Dewpoint Dewpoint Depression Visibility Wind Speed Wind Dir Waves Ship Positions

Randolph C

Owner: D&S Marine Service LLC, Houma, LA. More information available from US FCC via Universal Licensing System and Coast Guard Vessel Documentation Center.

Last reported at 2017-Sep-19 21:41 UTC. Time now 2017-Sep-20 00:24 UTC.
Position N 29°49' W 092°02'.

Length 206 m; draft 3 m.

Type: . MMSI: 367679550.

Date/timePositionNaut miles runAvg speedWind from/ knotsBaromVisibWave heightAir tempDewpointWater temp
2017-Sep-19 21:41N 29°49' W 092°02'1 4.7
2017-Sep-19 21:29N 29°49' W 092°03'2 4.7
2017-Sep-19 21:01N 29°48' W 092°05'2 4.8
2017-Sep-19 20:31N 29°47' W 092°08'2 4.5
2017-Sep-19 20:01N 29°47' W 092°10'2 4.4
2017-Sep-19 19:31N 29°47' W 092°13'2 5.0
2017-Sep-19 19:01N 29°48' W 092°15'3 4.8
2017-Sep-19 18:29N 29°50' W 092°18'2 4.4
2017-Sep-19 18:00N 29°51' W 092°20'33 3.9
2017-Sep-19 09:32N 29°56' W 092°58'0 4.4
2017-Sep-19 09:31N 29°56' W 092°58'2 4.3
2017-Sep-19 09:00N 29°56' W 093°01'2 4.3
2017-Sep-19 08:31N 29°56' W 093°03'2 4.2
2017-Sep-19 08:00N 29°56' W 093°06'2 4.2
2017-Sep-19 07:26N 29°56' W 093°08'2 3.8
2017-Sep-19 07:00N 29°57' W 093°10'2 4.2
2017-Sep-19 06:30N 29°58' W 093°12'2 4.0
2017-Sep-19 06:00N 29°60' W 093°13'2 3.5
2017-Sep-19 05:30N 30°01' W 093°14'2 3.6
2017-Sep-19 05:01N 30°02' W 093°16'2 3.8
2017-Sep-19 04:31N 30°04' W 093°16'2 3.4
2017-Sep-19 04:01N 30°05' W 093°18'1 1.9
2017-Sep-19 03:31N 30°06' W 093°18'1 2.3
2017-Sep-19 03:00N 30°06' W 093°20'2 3.6
2017-Sep-19 02:30N 30°07' W 093°20'1 1.3
2017-Sep-19 02:01N 30°08' W 093°20'0 0.3
2017-Sep-19 01:31N 30°08' W 093°20'0 0.8
2017-Sep-19 01:01N 30°08' W 093°19'0 0.0
2017-Sep-19 00:31N 30°08' W 093°19'0 0.0
2017-Sep-19 00:01N 30°08' W 093°19'0 0.0
2017-Sep-18 23:30N 30°08' W 093°19'0 0.0
2017-Sep-18 23:00N 30°08' W 093°19'0 0.0
2017-Sep-18 22:30N 30°08' W 093°19'0 0.0
2017-Sep-18 22:01N 30°08' W 093°19'0 0.0
2017-Sep-18 21:31N 30°08' W 093°19'0 0.0
2017-Sep-18 21:00N 30°08' W 093°19'0 0.0
2017-Sep-18 20:30N 30°08' W 093°19'0 0.0
2017-Sep-18 20:00N 30°08' W 093°19'0 0.0
2017-Sep-18 19:30N 30°08' W 093°19'0 0.0
2017-Sep-18 19:01N 30°08' W 093°19'0 0.0
2017-Sep-18 18:31N 30°08' W 093°19'0 0.0
2017-Sep-18 18:01N 30°08' W 093°19'0 0.0
2017-Sep-18 17:31N 30°08' W 093°19'0 0.0
2017-Sep-18 17:00N 30°08' W 093°19'0 0.0
2017-Sep-18 16:31N 30°08' W 093°19'0 0.0
2017-Sep-18 16:01N 30°08' W 093°19'0 0.0
2017-Sep-18 15:31N 30°08' W 093°19'0 0.0
2017-Sep-18 15:01N 30°08' W 093°19'0 0.0
2017-Sep-18 14:30N 30°08' W 093°19'0 0.0
2017-Sep-18 14:00N 30°08' W 093°19'0 0.0
2017-Sep-18 13:31N 30°08' W 093°19'0 0.0
2017-Sep-18 13:00N 30°08' W 093°19'0 0.0
2017-Sep-18 12:31N 30°08' W 093°19'0 0.0
2017-Sep-18 12:00N 30°08' W 093°19'0 0.0
2017-Sep-18 11:30N 30°08' W 093°19'0 0.0
2017-Sep-18 11:01N 30°08' W 093°19'0 0.0
2017-Sep-18 10:30N 30°08' W 093°19'0 0.0
2017-Sep-18 10:00N 30°08' W 093°19'0 0.0
2017-Sep-18 09:30N 30°08' W 093°19'0 0.0
2017-Sep-18 09:01N 30°08' W 093°19'0 0.0
2017-Sep-18 08:30N 30°08' W 093°19'0 0.0
2017-Sep-18 08:00N 30°08' W 093°19'0 0.0
2017-Sep-18 07:30N 30°08' W 093°19'0 0.0
2017-Sep-18 07:00N 30°08' W 093°19'0 0.0
2017-Sep-18 06:30N 30°08' W 093°19'0 0.0
2017-Sep-18 06:01N 30°08' W 093°19'0 0.0
2017-Sep-18 05:30N 30°08' W 093°19'0 0.0
2017-Sep-18 05:01N 30°08' W 093°19'0 0.0
2017-Sep-18 04:30N 30°08' W 093°19'0 0.0
2017-Sep-18 04:00N 30°08' W 093°19'0 0.3
2017-Sep-18 03:31N 30°08' W 093°19'2 3.6
2017-Sep-18 03:01N 30°06' W 093°20'2 4.1
2017-Sep-18 02:31N 30°04' W 093°20'2 3.2
2017-Sep-18 02:00N 30°04' W 093°22'0 0.1
2017-Sep-18 01:31N 30°04' W 093°22'0 0.0
2017-Sep-18 01:01N 30°04' W 093°22'0 0.0
2017-Sep-18 00:31N 30°04' W 093°22'0 0.0
2017-Sep-18 00:01N 30°04' W 093°22'0 0.0
2017-Sep-17 23:30N 30°04' W 093°22'0 0.0
2017-Sep-17 23:01N 30°04' W 093°22'0 0.0
2017-Sep-17 22:31N 30°04' W 093°22'0 0.2
2017-Sep-17 22:01N 30°04' W 093°22'3 5.2
2017-Sep-17 21:31N 30°04' W 093°25'3 5.5
2017-Sep-17 21:00N 30°04' W 093°28'3 5.5
2017-Sep-17 20:31N 30°04' W 093°31'3 5.2
2017-Sep-17 20:00N 30°04' W 093°35'3 5.9
2017-Sep-17 19:31N 30°03' W 093°38'3 5.7
2017-Sep-17 19:00N 30°03' W 093°41'70 4.6
2017-Sep-17 03:44N 29°29' W 094°52'2 7.0
2017-Sep-17 03:29N 29°31' W 094°53'3 6.8
2017-Sep-17 03:00N 29°33' W 094°55'3 6.4
2017-Sep-17 02:30N 29°36' W 094°57'3 6.7
2017-Sep-17 02:01N 29°39' W 094°58'4 7.0
2017-Sep-17 01:30N 29°42' W 095°01'3 5.8
2017-Sep-17 00:59N 29°44' W 095°03'3 5.6
2017-Sep-17 00:27N 29°47' W 095°05'1 0.3
2017-Sep-16 22:21N 29°47' W 095°04'0 0.7
2017-Sep-16 21:59N 29°47' W 095°04'0 0.0
2017-Sep-16 21:20N 29°47' W 095°04'0 0.0
2017-Sep-16 20:58N 29°47' W 095°04'0 0.0
2017-Sep-16 20:30N 29°47' W 095°04'0 0.0
2017-Sep-16 19:49N 29°47' W 095°04'0 1.0
2017-Sep-16 19:23N 29°47' W 095°04'1 3.3
2017-Sep-16 18:57N 29°46' W 095°05'1 1.4
2017-Sep-16 18:08N 29°47' W 095°05'1 5.3
2017-Sep-16 18:00N 29°46' W 095°05'1 0.2
2017-Sep-16 15:17N 29°46' W 095°05'2 5.8
2017-Sep-16 15:00N 29°45' W 095°04'3 5.9
2017-Sep-16 14:31N 29°43' W 095°01'3 5.8
2017-Sep-16 14:01N 29°41' W 094°59'3 6.5
2017-Sep-16 13:31N 29°38' W 094°58'3 6.8
2017-Sep-16 13:01N 29°35' W 094°56'3 6.9
2017-Sep-16 12:31N 29°32' W 094°54'22 3.7
2017-Sep-16 06:39N 29°32' W 094°29'0 2.7
2017-Sep-16 06:30N 29°32' W 094°29'0 0.3
2017-Sep-16 05:30N 29°33' W 094°28'17 4.8
2017-Sep-16 01:59N 29°41' W 094°12'33 5.7
2017-Sep-15 20:07N 30°03' W 093°43'1 5.9
2017-Sep-15 19:58N 30°03' W 093°42'3 5.5
2017-Sep-15 19:30N 30°04' W 093°39'3 5.7
2017-Sep-15 19:01N 30°04' W 093°36'3 5.2
2017-Sep-15 18:30N 30°04' W 093°33'3 5.4
2017-Sep-15 18:01N 30°04' W 093°30'2 3.8
2017-Sep-15 17:30N 30°04' W 093°27'3 5.3
2017-Sep-15 17:00N 30°04' W 093°24'3 5.5
2017-Sep-15 16:31N 30°04' W 093°21'3 5.5
2017-Sep-15 16:00N 30°06' W 093°19'0 0.6
2017-Sep-15 15:30N 30°06' W 093°19'0 0.1
2017-Sep-15 15:01N 30°06' W 093°19'1 2.9
2017-Sep-15 14:31N 30°05' W 093°18'1 3.0
2017-Sep-15 14:00N 30°04' W 093°16'3 5.3
2017-Sep-15 13:30N 30°02' W 093°15'3 5.3
2017-Sep-15 13:01N 29°60' W 093°13'3 6.1
2017-Sep-15 12:31N 29°57' W 093°11'3 5.4
2017-Sep-15 12:00N 29°56' W 093°08'3 6.2
2017-Sep-15 11:30N 29°56' W 093°05'41 5.2
2017-Sep-15 03:40N 29°50' W 092°18'1 4.8
2017-Sep-15 03:30N 29°50' W 092°18'2 4.6
2017-Sep-15 03:01N 29°48' W 092°15'2 4.7
2017-Sep-15 02:31N 29°47' W 092°13'2 4.3
2017-Sep-15 02:00N 29°47' W 092°11'2 4.4
2017-Sep-15 01:30N 29°47' W 092°08'3 5.8
2017-Sep-15 01:01N 29°48' W 092°05'3 5.6
2017-Sep-15 00:30N 29°49' W 092°02'58 4.6
2017-Sep-14 11:58N 29°35' W 090°57'3 5.7
2017-Sep-14 11:29N 29°33' W 090°55'3 5.8
2017-Sep-14 11:00N 29°32' W 090°52'3 6.1
2017-Sep-14 10:30N 29°32' W 090°48'3 5.1
2017-Sep-14 10:00N 29°33' W 090°45'2 4.8
2017-Sep-14 09:31N 29°34' W 090°43'2 4.2
2017-Sep-14 09:01N 29°36' W 090°43'2 3.7
2017-Sep-14 08:30N 29°36' W 090°40'3 5.4
2017-Sep-14 08:00N 29°35' W 090°38'2 5.0
2017-Sep-14 07:31N 29°34' W 090°35'3 5.4
2017-Sep-14 07:00N 29°34' W 090°32'3 5.6
2017-Sep-14 06:30N 29°34' W 090°29'3 5.7
2017-Sep-14 06:00N 29°33' W 090°25'3 4.0
2017-Sep-14 05:20N 29°35' W 090°23'2 4.4
2017-Sep-14 04:53N 29°36' W 090°22'  
Track history (hours):
 
Tides and Currents Weather Stations Pressure Air Temp Water Temp Dewpoint Dewpoint Depression Visibility Wind Speed Wind Dir Waves Ship Positions

Randolph C

Owner: D&S Marine Service LLC, Houma, LA. More information available from US FCC via Universal Licensing System and Coast Guard Vessel Documentation Center.

Last reported at 2017-Sep-19 21:41 UTC. Time now 2017-Sep-20 00:24 UTC.
Position N 29°49' W 092°02'.

Length 206 m; draft 3 m.

Type: . MMSI: 367679550.

Date/timePositionNaut miles runAvg speedWind from/ knotsBaromVisibWave heightAir tempDewpointWater temp
2017-Sep-19 21:41N 29°49' W 092°02'1 4.7
2017-Sep-19 21:29N 29°49' W 092°03'2 4.7
2017-Sep-19 21:01N 29°48' W 092°05'2 4.8
2017-Sep-19 20:31N 29°47' W 092°08'2 4.5
2017-Sep-19 20:01N 29°47' W 092°10'2 4.4
2017-Sep-19 19:31N 29°47' W 092°13'2 5.0
2017-Sep-19 19:01N 29°48' W 092°15'3 4.8
2017-Sep-19 18:29N 29°50' W 092°18'2 4.4
2017-Sep-19 18:00N 29°51' W 092°20'33 3.9
2017-Sep-19 09:32N 29°56' W 092°58'0 4.4
2017-Sep-19 09:31N 29°56' W 092°58'2 4.3
2017-Sep-19 09:00N 29°56' W 093°01'2 4.3
2017-Sep-19 08:31N 29°56' W 093°03'2 4.2
2017-Sep-19 08:00N 29°56' W 093°06'2 4.2
2017-Sep-19 07:26N 29°56' W 093°08'2 3.8
2017-Sep-19 07:00N 29°57' W 093°10'2 4.2
2017-Sep-19 06:30N 29°58' W 093°12'2 4.0
2017-Sep-19 06:00N 29°60' W 093°13'2 3.5
2017-Sep-19 05:30N 30°01' W 093°14'2 3.6
2017-Sep-19 05:01N 30°02' W 093°16'2 3.8
2017-Sep-19 04:31N 30°04' W 093°16'2 3.4
2017-Sep-19 04:01N 30°05' W 093°18'1 1.9
2017-Sep-19 03:31N 30°06' W 093°18'1 2.3
2017-Sep-19 03:00N 30°06' W 093°20'2 3.6
2017-Sep-19 02:30N 30°07' W 093°20'1 1.3
2017-Sep-19 02:01N 30°08' W 093°20'0 0.3
2017-Sep-19 01:31N 30°08' W 093°20'0 0.8
2017-Sep-19 01:01N 30°08' W 093°19'0 0.0
2017-Sep-19 00:31N 30°08' W 093°19'0 0.0
2017-Sep-19 00:01N 30°08' W 093°19'0 0.0
2017-Sep-18 23:30N 30°08' W 093°19'0 0.0
2017-Sep-18 23:00N 30°08' W 093°19'0 0.0
2017-Sep-18 22:30N 30°08' W 093°19'0 0.0
2017-Sep-18 22:01N 30°08' W 093°19'0 0.0
2017-Sep-18 21:31N 30°08' W 093°19'0 0.0
2017-Sep-18 21:00N 30°08' W 093°19'0 0.0
2017-Sep-18 20:30N 30°08' W 093°19'0 0.0
2017-Sep-18 20:00N 30°08' W 093°19'0 0.0
2017-Sep-18 19:30N 30°08' W 093°19'0 0.0
2017-Sep-18 19:01N 30°08' W 093°19'0 0.0
2017-Sep-18 18:31N 30°08' W 093°19'0 0.0
2017-Sep-18 18:01N 30°08' W 093°19'0 0.0
2017-Sep-18 17:31N 30°08' W 093°19'0 0.0
2017-Sep-18 17:00N 30°08' W 093°19'0 0.0
2017-Sep-18 16:31N 30°08' W 093°19'0 0.0
2017-Sep-18 16:01N 30°08' W 093°19'0 0.0
2017-Sep-18 15:31N 30°08' W 093°19'0 0.0
2017-Sep-18 15:01N 30°08' W 093°19'0 0.0
2017-Sep-18 14:30N 30°08' W 093°19'0 0.0
2017-Sep-18 14:00N 30°08' W 093°19'0 0.0
2017-Sep-18 13:31N 30°08' W 093°19'0 0.0
2017-Sep-18 13:00N 30°08' W 093°19'0 0.0
2017-Sep-18 12:31N 30°08' W 093°19'0 0.0
2017-Sep-18 12:00N 30°08' W 093°19'0 0.0
2017-Sep-18 11:30N 30°08' W 093°19'0 0.0
2017-Sep-18 11:01N 30°08' W 093°19'0 0.0
2017-Sep-18 10:30N 30°08' W 093°19'0 0.0
2017-Sep-18 10:00N 30°08' W 093°19'0 0.0
2017-Sep-18 09:30N 30°08' W 093°19'0 0.0
2017-Sep-18 09:01N 30°08' W 093°19'0 0.0
2017-Sep-18 08:30N 30°08' W 093°19'0 0.0
2017-Sep-18 08:00N 30°08' W 093°19'0 0.0
2017-Sep-18 07:30N 30°08' W 093°19'0 0.0
2017-Sep-18 07:00N 30°08' W 093°19'0 0.0
2017-Sep-18 06:30N 30°08' W 093°19'0 0.0
2017-Sep-18 06:01N 30°08' W 093°19'0 0.0
2017-Sep-18 05:30N 30°08' W 093°19'0 0.0
2017-Sep-18 05:01N 30°08' W 093°19'0 0.0
2017-Sep-18 04:30N 30°08' W 093°19'0 0.0
2017-Sep-18 04:00N 30°08' W 093°19'0 0.3
2017-Sep-18 03:31N 30°08' W 093°19'2 3.6
2017-Sep-18 03:01N 30°06' W 093°20'2 4.1
2017-Sep-18 02:31N 30°04' W 093°20'2 3.2
2017-Sep-18 02:00N 30°04' W 093°22'0 0.1
2017-Sep-18 01:31N 30°04' W 093°22'0 0.0
2017-Sep-18 01:01N 30°04' W 093°22'0 0.0
2017-Sep-18 00:31N 30°04' W 093°22'0 0.0
2017-Sep-18 00:01N 30°04' W 093°22'0 0.0
2017-Sep-17 23:30N 30°04' W 093°22'0 0.0
2017-Sep-17 23:01N 30°04' W 093°22'0 0.0
2017-Sep-17 22:31N 30°04' W 093°22'0 0.2
2017-Sep-17 22:01N 30°04' W 093°22'3 5.2
2017-Sep-17 21:31N 30°04' W 093°25'3 5.5
2017-Sep-17 21:00N 30°04' W 093°28'3 5.5
2017-Sep-17 20:31N 30°04' W 093°31'3 5.2
2017-Sep-17 20:00N 30°04' W 093°35'3 5.9
2017-Sep-17 19:31N 30°03' W 093°38'3 5.7
2017-Sep-17 19:00N 30°03' W 093°41'70 4.6
2017-Sep-17 03:44N 29°29' W 094°52'2 7.0
2017-Sep-17 03:29N 29°31' W 094°53'3 6.8
2017-Sep-17 03:00N 29°33' W 094°55'3 6.4
2017-Sep-17 02:30N 29°36' W 094°57'3 6.7
2017-Sep-17 02:01N 29°39' W 094°58'4 7.0
2017-Sep-17 01:30N 29°42' W 095°01'3 5.8
2017-Sep-17 00:59N 29°44' W 095°03'3 5.6
2017-Sep-17 00:27N 29°47' W 095°05'1 0.3
2017-Sep-16 22:21N 29°47' W 095°04'0 0.7
2017-Sep-16 21:59N 29°47' W 095°04'0 0.0
2017-Sep-16 21:20N 29°47' W 095°04'0 0.0
2017-Sep-16 20:58N 29°47' W 095°04'0 0.0
2017-Sep-16 20:30N 29°47' W 095°04'0 0.0
2017-Sep-16 19:49N 29°47' W 095°04'0 1.0
2017-Sep-16 19:23N 29°47' W 095°04'1 3.3
2017-Sep-16 18:57N 29°46' W 095°05'1 1.4
2017-Sep-16 18:08N 29°47' W 095°05'1 5.3
2017-Sep-16 18:00N 29°46' W 095°05'1 0.2
2017-Sep-16 15:17N 29°46' W 095°05'2 5.8
2017-Sep-16 15:00N 29°45' W 095°04'3 5.9
2017-Sep-16 14:31N 29°43' W 095°01'3 5.8
2017-Sep-16 14:01N 29°41' W 094°59'3 6.5
2017-Sep-16 13:31N 29°38' W 094°58'3 6.8
2017-Sep-16 13:01N 29°35' W 094°56'3 6.9
2017-Sep-16 12:31N 29°32' W 094°54'22 3.7
2017-Sep-16 06:39N 29°32' W 094°29'0 2.7
2017-Sep-16 06:30N 29°32' W 094°29'0 0.3
2017-Sep-16 05:30N 29°33' W 094°28'17 4.8
2017-Sep-16 01:59N 29°41' W 094°12'33 5.7
2017-Sep-15 20:07N 30°03' W 093°43'1 5.9
2017-Sep-15 19:58N 30°03' W 093°42'3 5.5
2017-Sep-15 19:30N 30°04' W 093°39'3 5.7
2017-Sep-15 19:01N 30°04' W 093°36'3 5.2
2017-Sep-15 18:30N 30°04' W 093°33'3 5.4
2017-Sep-15 18:01N 30°04' W 093°30'2 3.8
2017-Sep-15 17:30N 30°04' W 093°27'3 5.3
2017-Sep-15 17:00N 30°04' W 093°24'3 5.5
2017-Sep-15 16:31N 30°04' W 093°21'3 5.5
2017-Sep-15 16:00N 30°06' W 093°19'0 0.6
2017-Sep-15 15:30N 30°06' W 093°19'0 0.1
2017-Sep-15 15:01N 30°06' W 093°19'1 2.9
2017-Sep-15 14:31N 30°05' W 093°18'1 3.0
2017-Sep-15 14:00N 30°04' W 093°16'3 5.3
2017-Sep-15 13:30N 30°02' W 093°15'3 5.3
2017-Sep-15 13:01N 29°60' W 093°13'3 6.1
2017-Sep-15 12:31N 29°57' W 093°11'3 5.4
2017-Sep-15 12:00N 29°56' W 093°08'3 6.2
2017-Sep-15 11:30N 29°56' W 093°05'41 5.2
2017-Sep-15 03:40N 29°50' W 092°18'1 4.8
2017-Sep-15 03:30N 29°50' W 092°18'2 4.6
2017-Sep-15 03:01N 29°48' W 092°15'2 4.7
2017-Sep-15 02:31N 29°47' W 092°13'2 4.3
2017-Sep-15 02:00N 29°47' W 092°11'2 4.4
2017-Sep-15 01:30N 29°47' W 092°08'3 5.8
2017-Sep-15 01:01N 29°48' W 092°05'3 5.6
2017-Sep-15 00:30N 29°49' W 092°02'58 4.6
2017-Sep-14 11:58N 29°35' W 090°57'3 5.7
2017-Sep-14 11:29N 29°33' W 090°55'3 5.8
2017-Sep-14 11:00N 29°32' W 090°52'3 6.1
2017-Sep-14 10:30N 29°32' W 090°48'3 5.1
2017-Sep-14 10:00N 29°33' W 090°45'2 4.8
2017-Sep-14 09:31N 29°34' W 090°43'2 4.2
2017-Sep-14 09:01N 29°36' W 090°43'2 3.7
2017-Sep-14 08:30N 29°36' W 090°40'3 5.4
2017-Sep-14 08:00N 29°35' W 090°38'2 5.0
2017-Sep-14 07:31N 29°34' W 090°35'3 5.4
2017-Sep-14 07:00N 29°34' W 090°32'3 5.6
2017-Sep-14 06:30N 29°34' W 090°29'3 5.7
2017-Sep-14 06:00N 29°33' W 090°25'3 4.0
2017-Sep-14 05:20N 29°35' W 090°23'2 4.4
2017-Sep-14 04:53N 29°36' W 090°22'  

Dump ship's entire track history